createdAt,value
2019-02-25T00:01:45.153Z,-0.02
2019-02-25T00:04:41.787Z,-0.04
2019-02-25T00:07:40.570Z,-0.05
2019-02-25T00:10:36.069Z,-0.05
2019-02-25T00:13:32.823Z,-0.07
2019-02-25T00:16:28.539Z,-0.08
2019-02-25T00:19:25.478Z,-0.09
2019-02-25T00:22:21.823Z,-0.09
2019-02-25T00:25:18.349Z,-0.14
2019-02-25T00:28:15.075Z,-0.19
2019-02-25T00:31:11.464Z,-0.23
2019-02-25T00:34:06.988Z,-0.25
2019-02-25T00:37:04.489Z,-0.30
2019-02-25T00:40:00.311Z,-0.36
2019-02-25T00:42:57.012Z,-0.49
2019-02-25T00:45:51.450Z,-0.44
2019-02-25T00:48:48.612Z,-0.49
2019-02-25T00:51:43.419Z,-0.51
2019-02-25T00:54:39.917Z,-0.48
2019-02-25T00:57:36.361Z,-0.50
2019-02-25T01:00:33.012Z,-0.52
2019-02-25T01:03:28.525Z,-0.51
2019-02-25T01:06:25.767Z,-0.51
2019-02-25T01:09:22.238Z,-0.50
2019-02-25T01:12:18.760Z,-0.52
2019-02-25T01:15:14.488Z,-0.59
2019-02-25T01:18:12.126Z,-0.59
2019-02-25T01:21:09.840Z,-0.61
2019-02-25T01:24:06.361Z,-0.67
2019-02-25T01:27:02.799Z,-0.78
2019-02-25T01:29:58.519Z,-0.82
2019-02-25T01:32:56.069Z,-0.87
2019-02-25T01:35:52.831Z,-0.86
2019-02-25T01:38:49.349Z,-0.88
2019-02-25T01:41:44.831Z,-0.89
2019-02-25T01:44:41.378Z,-0.88
2019-02-25T01:47:38.116Z,-0.86
2019-02-25T01:50:34.335Z,-0.88
2019-02-25T01:53:29.747Z,-0.89
2019-02-25T01:56:27.170Z,-0.88
2019-02-25T01:59:22.254Z,-0.86
2019-02-25T02:02:18.989Z,-0.86
2019-02-25T02:05:14.696Z,-0.86
2019-02-25T02:08:12.571Z,-0.82
2019-02-25T02:11:09.129Z,-0.78
2019-02-25T02:14:05.469Z,-0.75
2019-02-25T02:17:01.769Z,-0.76
2019-02-25T02:19:57.785Z,-0.78
2019-02-25T02:22:52.354Z,-0.73
2019-02-25T02:25:49.846Z,-0.70
2019-02-25T02:28:45.414Z,-0.69
2019-02-25T02:31:41.930Z,-0.71
2019-02-25T02:34:37.422Z,-0.72
2019-02-25T02:37:34.761Z,-0.73
2019-02-25T02:40:29.892Z,-0.76
2019-02-25T02:43:26.539Z,-0.73
2019-02-25T02:46:35.567Z,-0.71
2019-02-25T02:49:32.081Z,-0.70
2019-02-25T02:52:27.488Z,-0.75
2019-02-25T02:55:23.643Z,-0.78
2019-02-25T02:58:18.996Z,-0.85
2019-02-25T03:01:15.555Z,-0.91
2019-02-25T03:04:11.259Z,-0.97
2019-02-25T03:07:08.700Z,-1.10
2019-02-25T03:10:05.063Z,-1.23
2019-02-25T03:13:02.664Z,-1.27
2019-02-25T03:15:58.155Z,-1.26
2019-02-25T03:18:55.036Z,-1.24
2019-02-25T03:21:47.389Z,-1.27
2019-02-25T03:24:43.840Z,-1.29
2019-02-25T03:27:40.321Z,-1.26
2019-02-25T03:30:38.133Z,-1.21
2019-02-25T03:33:33.675Z,-1.23
2019-02-25T03:36:30.223Z,-1.21
2019-02-25T03:39:26.103Z,-1.19
2019-02-25T03:42:22.525Z,-1.16
2019-02-25T03:45:18.223Z,-1.13
2019-02-25T03:48:15.696Z,-1.08
2019-02-25T03:51:11.174Z,-1.07
2019-02-25T03:54:07.731Z,-1.06
2019-02-25T03:57:03.107Z,-1.06
2019-02-25T03:59:59.636Z,-1.11
2019-02-25T04:02:55.344Z,-1.13
2019-02-25T04:05:51.871Z,-1.13
2019-02-25T04:08:48.574Z,-1.12
2019-02-25T04:11:44.975Z,-1.11
2019-02-25T04:14:41.563Z,-1.11
2019-02-25T04:17:38.106Z,-1.13
2019-02-25T04:20:33.833Z,-1.13
2019-02-25T04:23:30.590Z,-1.14
2019-02-25T04:26:27.767Z,-1.14
2019-02-25T04:29:25.009Z,-1.13
2019-02-25T04:32:21.774Z,-1.13
2019-02-25T04:35:18.554Z,-1.15
2019-02-25T04:38:15.301Z,-1.19
2019-02-25T04:41:10.713Z,-1.20
2019-02-25T04:44:06.889Z,-1.21
2019-02-25T04:47:01.981Z,-1.22
2019-02-25T04:49:58.737Z,-1.23
2019-02-25T04:52:53.700Z,-1.28
2019-02-25T04:55:49.924Z,-1.33
2019-02-25T04:58:45.506Z,-1.32
2019-02-25T05:01:42.081Z,-1.31
2019-02-25T05:04:37.552Z,-1.33
2019-02-25T05:07:34.056Z,-1.32
2019-02-25T05:10:30.785Z,-1.35
2019-02-25T05:13:28.225Z,-1.38
2019-02-25T05:16:24.527Z,-1.41
2019-02-25T05:19:22.056Z,-1.55
2019-02-25T05:22:17.784Z,-1.58
2019-02-25T05:25:15.308Z,-1.60
2019-02-25T05:28:10.765Z,-1.58
2019-02-25T05:31:07.296Z,-1.57
2019-02-25T05:34:02.920Z,-1.58
2019-02-25T05:36:59.051Z,-1.60
2019-02-25T05:39:55.171Z,-1.59
2019-02-25T05:42:51.721Z,-1.59
2019-02-25T05:45:47.354Z,-1.60
2019-02-25T05:48:45.032Z,-1.59
2019-02-25T05:51:40.324Z,-1.61
2019-02-25T05:54:37.107Z,-1.62
2019-02-25T05:57:32.784Z,-1.59
2019-02-25T06:00:30.933Z,-1.60
2019-02-25T06:03:27.429Z,-1.57
2019-02-25T06:06:23.835Z,-1.60
2019-02-25T06:09:21.645Z,-1.62
2019-02-25T06:12:17.378Z,-1.62
2019-02-25T06:15:13.952Z,-1.57
2019-02-25T06:18:10.598Z,-1.57
2019-02-25T06:21:08.244Z,-1.54
2019-02-25T06:24:04.812Z,-1.52
2019-02-25T06:27:01.127Z,-1.49
2019-02-25T06:29:57.704Z,-1.48
2019-02-25T06:32:54.239Z,-1.49
2019-02-25T06:35:49.775Z,-1.48
2019-02-25T06:38:46.462Z,-1.48
2019-02-25T06:41:42.836Z,-1.44
2019-02-25T06:44:39.696Z,-1.39
2019-02-25T06:47:34.598Z,-1.33
2019-02-25T06:50:31.797Z,-1.28
2019-02-25T06:53:28.945Z,-1.23
2019-02-25T06:56:23.944Z,-1.20
2019-02-25T06:59:20.343Z,-1.17
2019-02-25T07:02:15.859Z,-1.14
2019-02-25T07:05:22.115Z,-1.12
2019-02-25T07:08:23.997Z,-1.09
2019-02-25T07:11:30.409Z,-1.01
2019-02-25T07:14:36.639Z,-0.98
2019-02-25T07:17:54.276Z,-0.93
2019-02-25T07:21:05.961Z,-0.88
2019-02-25T07:24:17.277Z,-0.80
2019-02-25T07:27:24.476Z,-0.73
2019-02-25T07:30:46.081Z,-0.68
2019-02-25T07:33:57.859Z,-0.60
2019-02-25T07:37:13.730Z,-0.50
2019-02-25T07:40:22.564Z,-0.39
2019-02-25T07:43:30.930Z,-0.30
2019-02-25T07:46:48.007Z,-0.20
2019-02-25T07:49:58.560Z,-0.15
2019-02-25T07:53:15.897Z,0.03
2019-02-25T07:56:32.820Z,0.15
2019-02-25T07:59:58.331Z,0.28
2019-02-25T08:03:21.514Z,0.40
2019-02-25T08:06:37.475Z,0.50
2019-02-25T08:09:52.161Z,0.60
2019-02-25T08:12:57.525Z,0.70
2019-02-25T08:16:06.235Z,0.84
2019-02-25T08:19:23.598Z,1.02
2019-02-25T08:22:30.214Z,1.16
2019-02-25T08:25:40.068Z,1.29
2019-02-25T08:28:52.723Z,1.38
2019-02-25T08:32:01.846Z,1.48
2019-02-25T08:35:27.686Z,1.56
2019-02-25T08:38:40.608Z,1.68
2019-02-25T08:41:46.001Z,1.85
2019-02-25T08:44:46.984Z,1.99
2019-02-25T08:48:02.748Z,2.14
2019-02-25T08:50:56.955Z,2.31
2019-02-25T08:53:53.699Z,2.51
2019-02-25T08:56:50.424Z,2.67
2019-02-25T08:59:46.277Z,2.83
2019-02-25T09:02:44.164Z,3.01
2019-02-25T09:05:39.172Z,3.20
2019-02-25T09:08:35.938Z,3.32
2019-02-25T09:11:32.590Z,3.42
2019-02-25T09:14:30.499Z,3.53
2019-02-25T09:17:25.914Z,3.63
2019-02-25T09:20:22.146Z,3.83
2019-02-25T09:23:19.933Z,4.01
2019-02-25T09:26:17.524Z,4.23
2019-02-25T09:29:12.147Z,4.23
2019-02-25T09:32:12.950Z,4.42
2019-02-25T09:35:08.718Z,4.57
2019-02-25T09:38:06.107Z,4.73
2019-02-25T09:41:01.600Z,4.86
2019-02-25T09:43:59.283Z,4.93
2019-02-25T09:46:54.856Z,5.05
2019-02-25T09:49:51.261Z,5.18
2019-02-25T09:52:47.051Z,5.36
2019-02-25T09:55:43.439Z,5.43
2019-02-25T09:58:39.496Z,5.58
2019-02-25T10:01:42.357Z,5.74
2019-02-25T10:04:38.792Z,5.91
2019-02-25T10:07:35.358Z,6.05
2019-02-25T10:10:31.092Z,6.14
2019-02-25T10:13:28.864Z,6.26
2019-02-25T10:16:24.432Z,6.37
2019-02-25T10:19:21.058Z,6.53
2019-02-25T10:22:17.694Z,6.65
2019-02-25T10:25:14.652Z,6.77
2019-02-25T10:28:09.533Z,6.90
2019-02-25T10:31:07.168Z,6.97
2019-02-25T10:34:03.777Z,6.98
2019-02-25T10:37:00.439Z,6.99
2019-02-25T10:39:56.248Z,7.13
2019-02-25T10:42:52.869Z,7.28
2019-02-25T10:45:48.477Z,7.34
2019-02-25T10:48:44.720Z,7.41
2019-02-25T10:51:41.167Z,7.55
2019-02-25T10:54:37.355Z,7.63
2019-02-25T10:57:36.052Z,7.76
2019-02-25T11:00:35.042Z,7.82
2019-02-25T11:03:29.959Z,7.86
2019-02-25T11:06:27.396Z,7.98
2019-02-25T11:09:35.713Z,8.11
2019-02-25T11:12:32.226Z,8.18
2019-02-25T11:15:27.699Z,8.31
2019-02-25T11:18:26.693Z,8.37
2019-02-25T11:21:20.783Z,8.46
2019-02-25T11:24:20.720Z,8.51
2019-02-25T11:27:15.973Z,8.56
2019-02-25T11:30:14.223Z,8.63
2019-02-25T11:33:07.610Z,8.78
2019-02-25T11:36:04.346Z,8.83
2019-02-25T11:39:02.117Z,8.84
2019-02-25T11:41:56.754Z,8.89
2019-02-25T11:44:54.275Z,8.96
2019-02-25T11:47:49.281Z,9.08
2019-02-25T11:50:45.115Z,9.18
2019-02-25T11:53:40.216Z,9.35
2019-02-25T11:56:36.807Z,9.50
2019-02-25T11:59:32.310Z,9.48
2019-02-25T12:02:29.156Z,9.55
2019-02-25T12:05:25.951Z,9.67
2019-02-25T12:08:22.077Z,9.80
2019-02-25T12:11:17.581Z,9.93
2019-02-25T12:14:14.140Z,9.97
2019-02-25T12:17:10.175Z,10.07
2019-02-25T12:20:07.963Z,10.25
2019-02-25T12:23:03.712Z,10.25
2019-02-25T12:26:02.508Z,10.29
2019-02-25T12:28:59.320Z,10.27
2019-02-25T12:31:55.824Z,10.37
2019-02-25T12:34:52.576Z,10.45
2019-02-25T12:37:48.768Z,10.51
2019-02-25T12:40:44.742Z,10.54
2019-02-25T12:43:41.027Z,10.54
2019-02-25T12:46:37.775Z,10.61
2019-02-25T12:49:34.439Z,10.72
2019-02-25T12:52:30.210Z,10.81
2019-02-25T12:55:27.726Z,10.90
2019-02-25T12:58:23.294Z,10.99
2019-02-25T13:01:19.832Z,11.00
2019-02-25T13:04:15.167Z,11.07
2019-02-25T13:07:11.396Z,11.10
2019-02-25T13:10:06.898Z,11.07
2019-02-25T13:13:03.606Z,11.09
2019-02-25T13:16:01.092Z,11.15
2019-02-25T13:18:56.565Z,11.18
2019-02-25T13:21:52.772Z,11.19
2019-02-25T13:24:47.902Z,11.34
2019-02-25T13:27:45.830Z,11.51
2019-02-25T13:30:41.859Z,11.52
2019-02-25T13:33:38.377Z,11.59
2019-02-25T13:36:36.297Z,11.73
2019-02-25T13:39:32.913Z,11.80
2019-02-25T13:42:28.433Z,11.92
2019-02-25T13:45:25.182Z,11.98
2019-02-25T13:48:20.672Z,12.02
2019-02-25T13:51:17.446Z,12.12
2019-02-25T13:54:11.930Z,12.21
2019-02-25T13:57:09.469Z,12.23
2019-02-25T14:00:04.955Z,12.23
2019-02-25T14:03:03.278Z,12.28
2019-02-25T14:05:58.029Z,12.40
2019-02-25T14:08:55.085Z,12.47
2019-02-25T14:11:52.214Z,12.56
2019-02-25T14:14:48.874Z,12.64
2019-02-25T14:17:46.009Z,12.72
2019-02-25T14:20:42.454Z,12.81
2019-02-25T14:23:40.545Z,12.93
2019-02-25T14:26:38.027Z,13.08
2019-02-25T14:29:33.055Z,13.14
2019-02-25T14:32:30.242Z,13.10
2019-02-25T14:35:28.221Z,13.04
2019-02-25T14:38:23.393Z,13.00
2019-02-25T14:41:21.068Z,12.98
2019-02-25T14:44:15.201Z,13.05
2019-02-25T14:47:20.609Z,13.10
2019-02-25T14:50:08.366Z,13.20
2019-02-25T14:53:06.576Z,13.32
2019-02-25T14:56:03.911Z,13.44
2019-02-25T14:58:56.163Z,13.41
2019-02-25T15:01:52.979Z,13.45
2019-02-25T15:04:48.476Z,13.50
2019-02-25T15:07:44.979Z,13.57
2019-02-25T15:10:42.832Z,13.62
2019-02-25T15:13:39.077Z,13.77
2019-02-25T15:16:33.197Z,13.86
2019-02-25T15:19:31.994Z,13.94
2019-02-25T15:22:28.103Z,14.15
2019-02-25T15:25:21.960Z,14.13
2019-02-25T15:31:11.317Z,14.01
2019-02-25T15:34:06.562Z,14.07
2019-02-25T15:37:02.597Z,14.24
2019-02-25T15:39:59.066Z,14.43
2019-02-25T15:42:54.457Z,14.49
2019-02-25T15:45:50.919Z,14.42
2019-02-25T15:48:46.695Z,14.38
2019-02-25T15:51:45.170Z,14.27
2019-02-25T15:54:39.370Z,14.07
2019-02-25T15:57:37.758Z,13.84
2019-02-25T16:00:34.967Z,13.59
2019-02-25T16:03:32.268Z,13.33
2019-02-25T16:06:29.205Z,13.13
2019-02-25T16:09:25.528Z,12.95
2019-02-25T16:12:23.191Z,12.78
2019-02-25T16:15:17.406Z,12.59
2019-02-25T16:18:14.126Z,12.46
2019-02-25T16:21:11.174Z,12.32
2019-02-25T16:24:08.252Z,12.16
2019-02-25T16:27:02.655Z,12.00
2019-02-25T16:30:00.248Z,11.83
2019-02-25T16:32:54.692Z,11.69
2019-02-25T16:35:52.484Z,11.55
2019-02-25T16:38:51.240Z,11.40
2019-02-25T16:41:45.741Z,11.27
2019-02-25T16:44:40.467Z,11.13
2019-02-25T16:47:37.703Z,11.00
2019-02-25T16:50:34.837Z,10.85
2019-02-25T16:53:34.658Z,10.69
2019-02-25T16:56:26.131Z,10.54
2019-02-25T16:59:24.940Z,10.37
2019-02-25T17:02:19.493Z,10.25
2019-02-25T17:05:14.259Z,10.13
2019-02-25T17:08:12.558Z,10.02
2019-02-25T17:11:06.486Z,9.93
2019-02-25T17:14:03.822Z,9.78
2019-02-25T17:16:58.820Z,9.65
2019-02-25T17:19:56.222Z,9.56
2019-02-25T17:22:51.961Z,9.45
2019-02-25T17:25:48.440Z,9.31
2019-02-25T17:28:44.576Z,9.18
2019-02-25T17:31:41.236Z,9.05
2019-02-25T17:34:37.554Z,8.91
2019-02-25T17:37:36.084Z,8.81
2019-02-25T17:40:29.423Z,8.74
2019-02-25T17:43:27.335Z,8.65
2019-02-25T17:46:22.884Z,8.57
2019-02-25T17:49:21.671Z,8.49
2019-02-25T17:52:18.421Z,8.38
2019-02-25T17:55:14.149Z,8.26
2019-02-25T17:58:09.703Z,8.16
2019-02-25T18:01:06.221Z,8.05
2019-02-25T18:04:02.580Z,7.95
2019-02-25T18:06:58.241Z,7.83
2019-02-25T18:09:55.853Z,7.70
2019-02-25T18:12:51.479Z,7.58
2019-02-25T18:15:49.863Z,7.47
2019-02-25T18:18:45.107Z,7.34
2019-02-25T18:21:43.019Z,7.25
2019-02-25T18:24:37.000Z,7.16
2019-02-25T18:27:35.236Z,7.08
2019-02-25T18:30:32.264Z,7.00
2019-02-25T18:33:29.163Z,6.83
2019-02-25T18:36:26.456Z,6.77
2019-02-25T18:39:25.257Z,6.70
2019-02-25T18:42:20.339Z,6.64
2019-02-25T18:45:16.054Z,6.55
2019-02-25T18:48:11.248Z,6.45
2019-02-25T18:51:09.119Z,6.38
2019-02-25T18:54:04.324Z,6.32
2019-02-25T18:57:01.716Z,6.23
2019-02-25T18:59:59.277Z,6.17
2019-02-25T19:02:54.101Z,6.13
2019-02-25T19:05:51.041Z,6.07
2019-02-25T19:08:47.203Z,6.01
2019-02-25T19:11:45.049Z,5.97
2019-02-25T19:14:39.170Z,5.86
2019-02-25T19:17:35.741Z,5.85
2019-02-25T19:20:32.370Z,5.81
2019-02-25T19:23:28.903Z,5.77
2019-02-25T19:26:25.737Z,5.71
2019-02-25T19:29:21.795Z,5.64
2019-02-25T19:32:17.632Z,5.56
2019-02-25T19:35:13.744Z,5.49
2019-02-25T19:38:13.303Z,5.39
2019-02-25T19:41:13.051Z,5.27
2019-02-25T19:44:05.947Z,5.20
2019-02-25T19:47:01.933Z,5.13
2019-02-25T19:49:59.642Z,5.09
2019-02-25T19:52:54.163Z,5.04
2019-02-25T19:55:53.215Z,5.00
2019-02-25T19:58:45.819Z,4.97
2019-02-25T20:01:42.458Z,4.92
2019-02-25T20:04:42.287Z,4.88
2019-02-25T20:07:36.987Z,4.82
2019-02-25T20:10:34.712Z,4.78
2019-02-25T20:13:30.295Z,4.66
2019-02-25T20:16:29.838Z,4.58
2019-02-25T20:19:22.727Z,4.54
2019-02-25T20:22:20.103Z,4.49
2019-02-25T20:25:16.801Z,4.40
2019-02-25T20:28:11.627Z,4.31
2019-02-25T20:31:10.033Z,4.26
2019-02-25T20:34:06.253Z,4.22
2019-02-25T20:37:03.851Z,4.15
2019-02-25T20:40:00.603Z,4.11
2019-02-25T20:42:57.774Z,4.06
2019-02-25T20:45:54.051Z,4.01
2019-02-25T20:48:48.619Z,3.95
2019-02-25T20:51:45.635Z,3.90
2019-02-25T20:54:43.721Z,3.86
2019-02-25T20:57:38.172Z,3.84
2019-02-25T21:00:39.069Z,3.83
2019-02-25T21:03:32.088Z,3.81
2019-02-25T21:06:28.550Z,3.79
2019-02-25T21:09:24.115Z,3.74
2019-02-25T21:12:21.814Z,3.70
2019-02-25T21:15:16.585Z,3.66
2019-02-25T21:18:13.274Z,3.64
2019-02-25T21:21:13.493Z,3.59
2019-02-25T21:24:08.752Z,3.52
2019-02-25T21:27:06.377Z,3.40
2019-02-25T21:30:01.436Z,3.32
2019-02-25T21:32:58.922Z,3.26
2019-02-25T21:35:52.871Z,3.24
2019-02-25T21:38:51.524Z,3.24
2019-02-25T21:41:45.980Z,3.22
2019-02-25T21:44:46.110Z,3.20
2019-02-25T21:47:38.758Z,3.16
2019-02-25T21:50:36.033Z,3.16
2019-02-25T21:53:31.822Z,3.11
2019-02-25T21:56:28.657Z,3.07
2019-02-25T21:59:25.461Z,3.04
2019-02-25T22:02:21.000Z,3.02
2019-02-25T22:05:19.014Z,2.98
2019-02-25T22:08:13.412Z,2.97
2019-02-25T22:11:14.444Z,2.92
2019-02-25T22:14:06.632Z,2.89
2019-02-25T22:17:03.376Z,2.86
2019-02-25T22:19:58.923Z,2.80
2019-02-25T22:22:59.099Z,2.75
2019-02-25T22:25:52.697Z,2.68
2019-02-25T22:28:51.002Z,2.65
2019-02-25T22:31:45.593Z,2.61
2019-02-25T22:34:42.079Z,2.58
2019-02-25T22:37:38.539Z,2.55
2019-02-25T22:40:36.660Z,2.51
2019-02-25T22:43:31.878Z,2.48
2019-02-25T22:46:30.081Z,2.47
2019-02-25T22:49:26.680Z,2.45
2019-02-25T22:52:22.169Z,2.44
2019-02-25T22:55:18.481Z,2.43
2019-02-25T22:58:13.333Z,2.46
2019-02-25T23:01:09.283Z,2.44
2019-02-25T23:04:04.795Z,2.44
2019-02-25T23:07:02.594Z,2.43
2019-02-25T23:09:58.099Z,2.42
2019-02-25T23:12:54.844Z,2.37
2019-02-25T23:15:51.223Z,2.30
2019-02-25T23:18:47.793Z,2.23
2019-02-25T23:21:41.605Z,2.18
2019-02-25T23:24:42.051Z,2.10
2019-02-25T23:27:36.620Z,2.05
2019-02-25T23:30:32.740Z,1.91
2019-02-25T23:33:28.576Z,1.86
2019-02-25T23:36:26.440Z,1.86
2019-02-25T23:39:20.911Z,1.88
2019-02-25T23:42:18.012Z,1.87
2019-02-25T23:45:15.489Z,1.85
2019-02-25T23:48:11.790Z,1.84
2019-02-25T23:51:07.181Z,1.82
2019-02-25T23:54:03.723Z,1.80
2019-02-25T23:57:01.893Z,1.79
2019-02-25T23:59:55.728Z,1.79
